createdAt,value
2023-02-19T00:01:48.987Z,84.42
2023-02-19T00:04:20.436Z,84.21
2023-02-19T00:06:48.783Z,84.32
2023-02-19T00:09:18.507Z,83.79
2023-02-19T00:11:47.799Z,84.21
2023-02-19T00:14:18.608Z,84.45
2023-02-19T00:16:46.919Z,84.38
2023-02-19T00:19:16.911Z,84.85
2023-02-19T00:21:46.146Z,84.79
2023-02-19T00:24:15.903Z,85.42
2023-02-19T00:26:45.088Z,85.37
2023-02-19T00:29:15.429Z,85.14
2023-02-19T00:31:44.124Z,85.02
2023-02-19T00:34:13.366Z,85.44
2023-02-19T00:36:42.720Z,85.42
2023-02-19T00:39:15.665Z,85.76
2023-02-19T00:41:44.080Z,85.85
2023-02-19T00:44:13.200Z,85.88
2023-02-19T00:46:42.587Z,85.67
2023-02-19T00:49:16.082Z,85.77
2023-02-19T00:51:43.815Z,85.87
2023-02-19T00:54:13.816Z,85.91
2023-02-19T00:56:41.940Z,86.18
2023-02-19T00:59:10.249Z,86.54
2023-02-19T01:01:38.475Z,86.31
2023-02-19T01:04:06.921Z,86.75
2023-02-19T01:06:35.350Z,86.73
2023-02-19T01:09:03.510Z,87.25
2023-02-19T01:11:32.622Z,87.51
2023-02-19T01:14:01.700Z,87.34
2023-02-19T01:16:31.055Z,87.96
2023-02-19T01:19:00.040Z,88.14
2023-02-19T01:21:29.506Z,88.12
2023-02-19T01:23:58.627Z,88.26
2023-02-19T01:26:28.476Z,88.54
2023-02-19T01:28:57.995Z,89.63
2023-02-19T01:31:26.752Z,90.36
2023-02-19T01:33:56.778Z,91.13
2023-02-19T01:36:25.426Z,91.99
2023-02-19T01:38:53.206Z,92.55
2023-02-19T01:41:23.213Z,93.31
2023-02-19T01:44:01.010Z,93.30
2023-02-19T01:46:29.483Z,93.56
2023-02-19T01:49:00.360Z,93.48
2023-02-19T01:51:28.782Z,92.56
2023-02-19T01:54:00.135Z,92.94
2023-02-19T01:56:30.061Z,92.94
2023-02-19T01:58:59.887Z,93.21
2023-02-19T02:01:27.652Z,92.76
2023-02-19T02:03:55.511Z,93.26
2023-02-19T02:06:25.878Z,93.28
2023-02-19T02:09:14.021Z,93.37
2023-02-19T02:11:46.142Z,92.81
2023-02-19T02:14:16.378Z,93.34
2023-02-19T02:16:55.275Z,93.34
2023-02-19T02:19:49.124Z,93.01
2023-02-19T02:22:21.659Z,92.82
2023-02-19T02:25:28.991Z,92.40
2023-02-19T02:28:12.786Z,92.72
2023-02-19T02:30:44.534Z,92.77
2023-02-19T02:33:26.338Z,92.28
2023-02-19T02:35:57.923Z,92.41
2023-02-19T02:38:29.436Z,92.24
2023-02-19T02:40:58.753Z,92.45
2023-02-19T02:43:26.678Z,92.21
2023-02-19T02:45:55.813Z,92.30
2023-02-19T02:48:32.886Z,92.66
2023-02-19T02:51:07.686Z,92.36
2023-02-19T02:53:58.390Z,92.75
2023-02-19T02:56:27.199Z,93.05
2023-02-19T02:58:58.003Z,92.99
2023-02-19T03:01:49.437Z,92.42
2023-02-19T03:04:23.717Z,92.18
2023-02-19T03:06:53.088Z,92.15
2023-02-19T03:09:31.341Z,92.52
2023-02-19T03:12:20.426Z,92.74
2023-02-19T03:15:11.476Z,92.55
2023-02-19T03:18:03.941Z,92.31
2023-02-19T03:20:35.893Z,91.67
2023-02-19T03:23:04.314Z,91.97
2023-02-19T03:25:52.958Z,92.09
2023-02-19T03:28:44.715Z,91.95
2023-02-19T03:31:17.397Z,92.21
2023-02-19T03:33:50.483Z,91.73
2023-02-19T03:36:20.791Z,91.10
2023-02-19T03:38:53.741Z,91.26
2023-02-19T03:41:27.272Z,90.62
2023-02-19T03:44:04.548Z,91.09
2023-02-19T03:46:38.084Z,90.98
2023-02-19T03:49:14.577Z,90.58
2023-02-19T03:51:46.461Z,89.91
2023-02-19T03:54:20.328Z,90.27
2023-02-19T03:56:53.934Z,90.63
2023-02-19T03:59:29.391Z,90.73
2023-02-19T04:02:01.436Z,90.35
2023-02-19T04:04:35.782Z,90.70
2023-02-19T04:07:03.831Z,90.32
2023-02-19T04:09:35.917Z,90.33
2023-02-19T04:12:04.539Z,90.04
2023-02-19T04:14:39.767Z,89.56
2023-02-19T04:17:10.763Z,89.68
2023-02-19T04:19:42.569Z,89.72
2023-02-19T04:22:13.384Z,89.64
2023-02-19T04:24:45.904Z,89.38
2023-02-19T04:27:13.655Z,89.41
2023-02-19T04:29:41.942Z,89.62
2023-02-19T04:32:11.658Z,89.47
2023-02-19T04:34:41.008Z,89.48
2023-02-19T04:37:08.776Z,89.47
2023-02-19T04:39:36.678Z,89.18
2023-02-19T04:42:04.814Z,88.91
2023-02-19T04:44:32.541Z,88.99
2023-02-19T04:47:00.236Z,88.43
2023-02-19T04:49:28.040Z,87.71
2023-02-19T04:51:57.069Z,88.43
2023-02-19T04:54:25.034Z,88.81
2023-02-19T04:56:52.706Z,89.18
2023-02-19T04:59:20.403Z,89.62
2023-02-19T05:01:48.212Z,89.81
2023-02-19T05:04:15.981Z,89.36
2023-02-19T05:06:43.712Z,89.79
2023-02-19T05:09:12.943Z,90.15
2023-02-19T05:11:40.723Z,90.16
2023-02-19T05:14:08.567Z,90.35
2023-02-19T05:16:36.375Z,89.89
2023-02-19T05:19:04.144Z,89.06
2023-02-19T05:21:32.004Z,89.42
2023-02-19T05:23:59.779Z,89.32
2023-02-19T05:26:29.264Z,89.24
2023-02-19T05:28:56.949Z,89.60
2023-02-19T05:31:25.046Z,89.31
2023-02-19T05:33:52.867Z,89.97
2023-02-19T05:36:22.443Z,90.16
2023-02-19T05:38:53.818Z,90.20
2023-02-19T05:41:23.721Z,90.73
2023-02-19T05:43:53.187Z,90.68
2023-02-19T05:46:23.701Z,90.91
2023-02-19T05:48:52.899Z,90.07
2023-02-19T05:51:23.369Z,90.84
2023-02-19T05:53:51.941Z,91.68
2023-02-19T05:56:28.880Z,93.17
2023-02-19T05:58:58.634Z,94.72
2023-02-19T06:01:29.169Z,94.21
2023-02-19T06:03:57.949Z,95.27
2023-02-19T06:06:26.433Z,95.18
2023-02-19T06:08:55.063Z,95.04
2023-02-19T06:11:22.871Z,94.06
2023-02-19T06:13:51.250Z,92.44
2023-02-19T06:16:21.876Z,92.93
2023-02-19T06:18:49.948Z,92.13
2023-02-19T06:21:19.706Z,91.42
2023-02-19T06:23:48.193Z,91.70
2023-02-19T06:26:18.767Z,91.95
2023-02-19T06:28:47.387Z,91.67
2023-02-19T06:31:15.498Z,91.04
2023-02-19T06:33:45.116Z,91.10
2023-02-19T06:36:15.235Z,90.34
2023-02-19T06:38:43.004Z,90.59
2023-02-19T06:41:11.922Z,90.39
2023-02-19T06:43:40.046Z,89.82
2023-02-19T06:46:08.467Z,89.36
2023-02-19T06:48:36.874Z,89.25
2023-02-19T06:51:06.349Z,89.54
2023-02-19T06:53:34.005Z,88.64
2023-02-19T06:56:04.538Z,88.21
2023-02-19T06:58:33.087Z,88.29
2023-02-19T07:01:00.986Z,88.56
2023-02-19T07:03:28.755Z,88.00
2023-02-19T07:05:56.454Z,88.12
2023-02-19T07:08:26.019Z,86.70
2023-02-19T07:10:58.371Z,87.04
2023-02-19T07:13:27.702Z,87.57
2023-02-19T07:16:01.361Z,87.03
2023-02-19T07:18:30.443Z,87.20
2023-02-19T07:21:03.620Z,87.34
2023-02-19T07:23:32.802Z,87.04
2023-02-19T07:26:00.898Z,85.35
2023-02-19T07:28:28.597Z,84.73
2023-02-19T07:31:01.638Z,84.73
2023-02-19T07:33:29.466Z,85.25
2023-02-19T07:35:57.519Z,86.06
2023-02-19T07:38:26.833Z,84.99
2023-02-19T07:40:57.571Z,85.12
2023-02-19T07:43:26.289Z,85.21
2023-02-19T07:45:54.366Z,84.82
2023-02-19T07:48:22.859Z,83.79
2023-02-19T07:50:54.111Z,83.86
2023-02-19T07:53:22.507Z,83.61
2023-02-19T07:55:50.532Z,83.41
2023-02-19T07:58:19.730Z,83.53
2023-02-19T08:00:47.473Z,83.99
2023-02-19T08:03:14.257Z,83.08
2023-02-19T08:05:44.905Z,83.27
2023-02-19T08:08:14.562Z,82.62
2023-02-19T08:11:00.212Z,82.17
2023-02-19T08:13:30.801Z,82.02
2023-02-19T08:16:19.990Z,82.54
2023-02-19T08:18:48.795Z,81.45
2023-02-19T08:21:18.260Z,80.68
2023-02-19T08:23:49.932Z,80.52
2023-02-19T08:26:18.638Z,80.18
2023-02-19T08:28:49.342Z,79.45
2023-02-19T08:31:17.324Z,80.27
2023-02-19T08:33:45.218Z,79.22
2023-02-19T08:36:13.057Z,78.68
2023-02-19T08:38:41.081Z,78.64
2023-02-19T08:41:10.596Z,78.07
2023-02-19T08:43:38.970Z,78.17
2023-02-19T08:46:10.109Z,77.96
2023-02-19T08:48:38.169Z,77.30
2023-02-19T08:51:09.410Z,77.36
2023-02-19T08:53:39.246Z,77.19
2023-02-19T08:56:07.688Z,76.91
2023-02-19T08:58:36.143Z,75.85
2023-02-19T09:01:04.151Z,75.17
2023-02-19T09:03:33.202Z,75.92
2023-02-19T09:06:01.331Z,76.00
2023-02-19T09:08:29.085Z,76.98
2023-02-19T09:11:00.238Z,75.42
2023-02-19T09:13:28.273Z,75.77
2023-02-19T09:15:57.032Z,75.97
2023-02-19T09:18:25.181Z,75.98
2023-02-19T09:20:54.309Z,76.20
2023-02-19T09:23:22.029Z,75.71
2023-02-19T09:25:49.826Z,75.88
2023-02-19T09:28:17.758Z,76.10
2023-02-19T09:30:45.517Z,76.02
2023-02-19T09:33:13.333Z,77.21
2023-02-19T09:35:41.768Z,77.35
2023-02-19T09:38:11.327Z,77.46
2023-02-19T09:40:40.335Z,77.50
2023-02-19T09:43:10.223Z,76.00
2023-02-19T09:45:39.091Z,76.58
2023-02-19T09:48:07.777Z,76.32
2023-02-19T09:50:40.978Z,74.82
2023-02-19T09:53:18.454Z,74.71
2023-02-19T09:55:46.542Z,73.89
2023-02-19T09:58:27.387Z,72.80
2023-02-19T10:00:57.770Z,73.77
2023-02-19T10:03:31.795Z,73.80
2023-02-19T10:06:01.896Z,73.63
2023-02-19T10:08:34.378Z,75.08
2023-02-19T10:11:04.214Z,75.67
2023-02-19T10:13:36.584Z,76.87
2023-02-19T10:16:10.025Z,74.63
2023-02-19T10:18:41.385Z,74.01
2023-02-19T10:21:12.634Z,74.60
2023-02-19T10:23:43.598Z,75.05
2023-02-19T10:26:11.422Z,72.70
2023-02-19T10:28:39.566Z,71.34
2023-02-19T10:31:18.365Z,71.30
2023-02-19T10:33:51.839Z,72.41
2023-02-19T10:36:30.523Z,71.24
2023-02-19T10:39:02.271Z,71.29
2023-02-19T10:41:31.164Z,70.18
2023-02-19T10:44:07.636Z,70.49
2023-02-19T10:46:38.464Z,69.74
2023-02-19T10:49:18.118Z,69.41
2023-02-19T10:51:46.012Z,69.65
2023-02-19T10:54:20.889Z,69.08
2023-02-19T10:56:48.772Z,68.78
2023-02-19T10:59:25.038Z,68.32
2023-02-19T11:01:58.049Z,65.86
2023-02-19T11:04:27.052Z,66.10
2023-02-19T11:06:55.260Z,65.89
2023-02-19T11:09:32.341Z,66.03
2023-02-19T11:12:00.394Z,66.13
2023-02-19T11:14:30.225Z,65.86
2023-02-19T11:17:00.320Z,65.14
2023-02-19T11:19:36.607Z,65.97
2023-02-19T11:22:21.362Z,65.36
2023-02-19T11:24:56.656Z,65.14
2023-02-19T11:27:26.573Z,66.11
2023-02-19T11:29:54.520Z,65.62
2023-02-19T11:32:29.359Z,64.34
2023-02-19T11:35:25.310Z,64.31
2023-02-19T11:37:59.317Z,64.54
2023-02-19T11:40:40.168Z,65.09
2023-02-19T11:43:21.322Z,65.35
2023-02-19T11:45:59.500Z,64.79
2023-02-19T11:48:47.801Z,65.03
2023-02-19T11:51:32.075Z,64.79
2023-02-19T11:54:11.974Z,64.57
2023-02-19T11:56:44.592Z,63.85
2023-02-19T11:59:22.510Z,64.54
2023-02-19T12:02:01.908Z,64.02
2023-02-19T12:04:54.629Z,63.30
2023-02-19T12:07:40.458Z,63.43
2023-02-19T12:10:15.067Z,62.07
2023-02-19T12:12:59.087Z,62.21
2023-02-19T12:15:52.715Z,61.37
2023-02-19T12:19:03.770Z,62.03
2023-02-19T12:21:51.445Z,61.82
2023-02-19T12:24:41.502Z,61.74
2023-02-19T12:27:21.887Z,61.95
2023-02-19T12:30:05.301Z,61.79
2023-02-19T12:32:47.118Z,61.74
2023-02-19T12:35:46.781Z,61.00
2023-02-19T12:38:23.450Z,60.83
2023-02-19T12:41:19.399Z,62.17
2023-02-19T12:43:53.981Z,62.30
2023-02-19T12:46:29.888Z,62.34
2023-02-19T12:49:02.570Z,62.06
2023-02-19T12:51:38.322Z,62.10
2023-02-19T12:54:13.841Z,62.08
2023-02-19T12:56:45.344Z,63.34
2023-02-19T12:59:16.626Z,62.85
2023-02-19T13:01:51.885Z,62.25
2023-02-19T13:04:26.190Z,62.75
2023-02-19T13:06:58.640Z,61.83
2023-02-19T13:09:32.227Z,61.79
2023-02-19T13:12:05.489Z,61.60
2023-02-19T13:14:37.655Z,61.42
2023-02-19T13:17:27.210Z,61.53
2023-02-19T13:19:59.855Z,61.40
2023-02-19T13:22:53.499Z,61.67
2023-02-19T13:25:23.428Z,61.86
2023-02-19T13:28:04.001Z,61.57
2023-02-19T13:30:43.644Z,60.72
2023-02-19T13:33:31.759Z,61.33
2023-02-19T13:36:21.325Z,61.25
2023-02-19T13:38:51.162Z,62.69
2023-02-19T13:41:29.432Z,61.34
2023-02-19T13:44:03.495Z,60.58
2023-02-19T13:46:38.843Z,61.25
2023-02-19T13:49:40.753Z,60.30
2023-02-19T13:52:41.771Z,60.35
2023-02-19T13:55:48.562Z,60.65
2023-02-19T13:58:40.212Z,62.19
2023-02-19T14:01:09.224Z,61.83
2023-02-19T14:03:50.952Z,62.57
2023-02-19T14:06:20.134Z,62.70
2023-02-19T14:08:55.975Z,62.18
2023-02-19T14:11:57.176Z,62.94
2023-02-19T14:14:28.091Z,63.17
2023-02-19T14:17:04.686Z,62.41
2023-02-19T14:19:48.488Z,63.77
2023-02-19T14:22:49.847Z,62.75
2023-02-19T14:25:30.567Z,63.82
2023-02-19T14:28:04.092Z,64.56
2023-02-19T14:30:34.387Z,64.86
2023-02-19T14:33:10.885Z,63.98
2023-02-19T14:35:42.666Z,63.40
2023-02-19T14:38:19.658Z,63.25
2023-02-19T14:40:49.081Z,63.41
2023-02-19T14:43:19.143Z,63.50
2023-02-19T14:45:52.553Z,63.50
2023-02-19T14:48:25.278Z,63.90
2023-02-19T14:50:55.259Z,64.05
2023-02-19T14:53:27.456Z,63.64
2023-02-19T14:55:56.655Z,64.26
2023-02-19T14:58:27.499Z,64.22
2023-02-19T15:00:55.351Z,63.86
2023-02-19T15:03:31.819Z,64.85
2023-02-19T15:06:04.395Z,65.37
2023-02-19T15:08:39.359Z,65.56
2023-02-19T15:11:12.597Z,65.81
2023-02-19T15:13:45.611Z,65.49
2023-02-19T15:16:19.413Z,65.48
2023-02-19T15:18:49.587Z,65.77
2023-02-19T15:21:24.738Z,66.44
2023-02-19T15:23:56.435Z,66.22
2023-02-19T15:26:29.209Z,68.02
2023-02-19T15:29:00.573Z,69.67
2023-02-19T15:31:28.698Z,73.19
2023-02-19T15:33:56.822Z,75.13
2023-02-19T15:36:29.053Z,76.54
2023-02-19T15:39:00.415Z,77.04
2023-02-19T15:41:31.870Z,77.18
2023-02-19T15:44:10.795Z,76.83
2023-02-19T15:46:39.426Z,77.21
2023-02-19T15:49:13.954Z,76.46
2023-02-19T15:51:46.288Z,76.97
2023-02-19T15:54:27.282Z,76.63
2023-02-19T15:57:00.047Z,77.04
2023-02-19T15:59:33.532Z,76.56
2023-02-19T16:02:03.621Z,76.88
2023-02-19T16:04:31.721Z,77.40
2023-02-19T16:07:01.150Z,77.62
2023-02-19T16:09:33.398Z,77.67
2023-02-19T16:12:02.065Z,77.75
2023-02-19T16:14:32.100Z,78.03
2023-02-19T16:17:06.551Z,77.93
2023-02-19T16:19:46.971Z,78.09
2023-02-19T16:22:18.298Z,78.05
2023-02-19T16:24:50.369Z,78.95
2023-02-19T16:27:30.448Z,78.98
2023-02-19T16:29:58.831Z,78.91
2023-02-19T16:32:26.698Z,78.99
2023-02-19T16:34:54.652Z,78.65
2023-02-19T16:37:33.476Z,78.97
2023-02-19T16:40:45.585Z,78.60
2023-02-19T16:43:31.247Z,77.84
2023-02-19T16:46:00.642Z,77.57
2023-02-19T16:48:29.189Z,77.95
2023-02-19T16:50:57.052Z,78.22
2023-02-19T16:53:26.203Z,77.78
2023-02-19T16:55:53.976Z,78.51
2023-02-19T16:58:21.960Z,78.08
2023-02-19T17:00:51.095Z,78.05
2023-02-19T17:03:21.234Z,78.21
2023-02-19T17:05:49.172Z,77.91
2023-02-19T17:08:35.297Z,77.88
2023-02-19T17:11:05.373Z,77.98
2023-02-19T17:13:33.206Z,78.23
2023-02-19T17:16:02.784Z,77.88
2023-02-19T17:18:30.562Z,78.57
2023-02-19T17:21:02.371Z,79.34
2023-02-19T17:23:30.092Z,79.74
2023-02-19T17:25:57.993Z,80.44
2023-02-19T17:28:26.046Z,80.52
2023-02-19T17:30:53.837Z,80.29
2023-02-19T17:33:23.228Z,80.46
2023-02-19T17:35:50.992Z,80.85
2023-02-19T17:38:18.713Z,81.13
2023-02-19T17:40:46.539Z,81.64
2023-02-19T17:43:14.652Z,81.97
2023-02-19T17:45:42.589Z,81.98
2023-02-19T17:48:13.918Z,82.51
2023-02-19T17:50:43.070Z,82.18
2023-02-19T17:53:10.973Z,82.63
2023-02-19T17:55:38.699Z,82.91
2023-02-19T17:58:06.507Z,82.83
2023-02-19T18:00:35.331Z,83.13
2023-02-19T18:03:03.076Z,82.65
2023-02-19T18:05:31.399Z,82.40
2023-02-19T18:08:00.578Z,82.55
2023-02-19T18:10:28.340Z,82.50
2023-02-19T18:12:56.079Z,81.95
2023-02-19T18:15:26.786Z,81.27
2023-02-19T18:17:55.552Z,81.73
2023-02-19T18:20:25.356Z,81.92
2023-02-19T18:22:53.684Z,82.43
2023-02-19T18:25:23.458Z,82.57
2023-02-19T18:27:51.294Z,82.77
2023-02-19T18:30:20.639Z,83.16
2023-02-19T18:32:48.707Z,83.57
2023-02-19T18:35:17.280Z,84.68
2023-02-19T18:37:45.131Z,85.74
2023-02-19T18:40:13.515Z,86.34
2023-02-19T18:42:42.743Z,86.80
2023-02-19T18:45:10.661Z,87.74
2023-02-19T18:47:38.414Z,88.75
2023-02-19T18:50:08.389Z,88.93
2023-02-19T18:52:36.167Z,89.86
2023-02-19T18:55:04.020Z,91.02
2023-02-19T18:57:31.800Z,91.53
2023-02-19T19:00:01.020Z,91.82
2023-02-19T19:02:36.456Z,92.11
2023-02-19T19:05:10.608Z,92.22
2023-02-19T19:07:38.418Z,92.14
2023-02-19T19:10:07.443Z,92.43
2023-02-19T19:12:35.324Z,92.73
2023-02-19T19:15:05.558Z,93.36
2023-02-19T19:17:33.451Z,93.51
2023-02-19T19:20:01.264Z,93.71
2023-02-19T19:22:29.062Z,93.70
2023-02-19T19:24:56.859Z,94.03
2023-02-19T19:27:24.682Z,94.17
2023-02-19T19:29:52.411Z,94.38
2023-02-19T19:32:21.733Z,94.38
2023-02-19T19:34:49.520Z,94.82
2023-02-19T19:37:17.373Z,94.17
2023-02-19T19:39:45.192Z,94.57
2023-02-19T19:42:13.132Z,94.49
2023-02-19T19:44:41.010Z,94.36
2023-02-19T19:47:09.002Z,94.11
2023-02-19T19:49:38.302Z,94.25
2023-02-19T19:52:06.427Z,93.23
2023-02-19T19:54:34.551Z,93.19
2023-02-19T19:57:02.420Z,92.86
2023-02-19T19:59:30.984Z,92.57
2023-02-19T20:01:58.985Z,92.35
2023-02-19T20:04:27.466Z,92.08
2023-02-19T20:06:58.489Z,92.06
2023-02-19T20:09:29.106Z,91.57
2023-02-19T20:11:57.213Z,91.44
2023-02-19T20:14:26.585Z,91.77
2023-02-19T20:16:56.167Z,91.89
2023-02-19T20:19:24.320Z,92.05
2023-02-19T20:21:54.225Z,91.95
2023-02-19T20:24:26.413Z,91.65
2023-02-19T20:26:58.499Z,91.60
2023-02-19T20:29:27.914Z,91.18
2023-02-19T20:31:56.545Z,91.35
2023-02-19T20:34:26.715Z,91.53
2023-02-19T20:36:55.082Z,90.96
2023-02-19T20:39:28.813Z,91.51
2023-02-19T20:41:57.654Z,91.02
2023-02-19T20:44:26.032Z,91.54
2023-02-19T20:46:55.009Z,91.95
2023-02-19T20:49:24.870Z,91.66
2023-02-19T20:51:54.994Z,91.30
2023-02-19T20:54:26.630Z,91.34
2023-02-19T20:56:56.385Z,91.62
2023-02-19T20:59:27.316Z,91.55
2023-02-19T21:01:55.194Z,91.67
2023-02-19T21:04:23.024Z,91.67
2023-02-19T21:06:52.240Z,91.24
2023-02-19T21:09:20.178Z,91.76
2023-02-19T21:11:49.599Z,91.39
2023-02-19T21:14:18.928Z,91.46
2023-02-19T21:16:46.775Z,91.87
2023-02-19T21:19:14.605Z,92.07
2023-02-19T21:21:42.487Z,91.54
2023-02-19T21:24:11.612Z,91.48
2023-02-19T21:26:40.946Z,91.58
2023-02-19T21:29:11.668Z,91.47
2023-02-19T21:31:42.801Z,91.43
2023-02-19T21:34:12.475Z,91.77
2023-02-19T21:36:40.704Z,91.85
2023-02-19T21:39:09.996Z,91.40
2023-02-19T21:41:37.879Z,91.62
2023-02-19T21:44:06.134Z,91.32
2023-02-19T21:46:35.333Z,91.38
2023-02-19T21:49:03.683Z,91.36
2023-02-19T21:51:33.097Z,91.56
2023-02-19T21:54:01.409Z,91.63
2023-02-19T21:56:31.356Z,91.47
2023-02-19T21:58:59.690Z,91.51
2023-02-19T22:01:29.241Z,91.22
2023-02-19T22:03:58.393Z,91.19
2023-02-19T22:06:29.161Z,91.61
2023-02-19T22:08:57.625Z,91.32
2023-02-19T22:11:25.662Z,91.47
2023-02-19T22:13:53.705Z,91.61
2023-02-19T22:16:21.724Z,91.30
2023-02-19T22:18:50.698Z,91.48
2023-02-19T22:21:20.704Z,91.42
2023-02-19T22:23:49.553Z,90.69
2023-02-19T22:26:21.398Z,90.79
2023-02-19T22:28:49.143Z,90.43
2023-02-19T22:31:17.502Z,90.57
2023-02-19T22:33:45.816Z,90.33
2023-02-19T22:36:15.849Z,89.72
2023-02-19T22:38:45.244Z,89.70
2023-02-19T22:41:13.041Z,89.40
2023-02-19T22:43:41.038Z,88.92
2023-02-19T22:46:12.505Z,88.85
2023-02-19T22:48:40.538Z,88.76
2023-02-19T22:51:12.997Z,88.51
2023-02-19T22:53:45.834Z,88.30
2023-02-19T22:56:15.327Z,88.21
2023-02-19T22:58:43.534Z,87.85
2023-02-19T23:01:12.671Z,87.99
2023-02-19T23:03:46.842Z,87.54
2023-02-19T23:06:15.088Z,87.05
2023-02-19T23:08:43.431Z,86.89
2023-02-19T23:11:13.418Z,86.88
2023-02-19T23:13:42.488Z,86.44
2023-02-19T23:16:10.678Z,85.90
2023-02-19T23:18:38.765Z,85.64
2023-02-19T23:21:06.528Z,85.22
2023-02-19T23:23:34.243Z,84.88
2023-02-19T23:26:02.045Z,84.85
2023-02-19T23:28:31.380Z,84.68
2023-02-19T23:30:59.245Z,84.87
2023-02-19T23:33:27.092Z,84.20
2023-02-19T23:35:54.874Z,84.41
2023-02-19T23:38:22.623Z,84.28
2023-02-19T23:40:50.377Z,84.38
2023-02-19T23:43:18.194Z,84.47
2023-02-19T23:45:47.567Z,83.91
2023-02-19T23:48:15.422Z,84.09
2023-02-19T23:50:43.235Z,84.50
2023-02-19T23:53:11.390Z,84.65
2023-02-19T23:55:39.099Z,84.42
2023-02-19T23:58:06.963Z,84.76
